sensor_id;sensor_type;location;lat;lon;timestamp;pressure;altitude;pressure_sealevel;temperature;humidity
41632;BME280;37452;51.938;4.624;2022-08-11T00:00:55;76910.84;;;-142.75;100.00
41632;BME280;37452;51.938;4.624;2022-08-11T00:03:21;76912.81;;;-142.75;100.00
41632;BME280;37452;51.938;4.624;2022-08-11T00:05:47;76920.69;;;-142.75;100.00
41632;BME280;37452;51.938;4.624;2022-08-11T00:08:24;76920.69;;;-142.75;100.00
41632;BME280;37452;51.938;4.624;2022-08-11T00:10:53;76930.53;;;-142.75;100.00
41632;BME280;37452;51.938;4.624;2022-08-11T00:13:20;76924.63;;;-142.75;100.00
41632;BME280;37452;51.938;4.624;2022-08-11T00:15:46;76930.53;;;-142.75;100.00
41632;BME280;37452;51.938;4.624;2022-08-11T00:18:12;76942.34;;;-142.75;100.00
41632;BME280;37452;51.938;4.624;2022-08-11T00:20:39;76940.38;;;-142.75;100.00
41632;BME280;37452;51.938;4.624;2022-08-11T00:23:05;76938.41;;;-142.75;100.00
41632;BME280;37452;51.938;4.624;2022-08-11T00:25:35;76940.38;;;-142.75;100.00
41632;BME280;37452;51.938;4.624;2022-08-11T00:28:01;76946.28;;;-142.75;100.00
41632;BME280;37452;51.938;4.624;2022-08-11T00:30:26;76960.06;;;-142.75;100.00
41632;BME280;37452;51.938;4.624;2022-08-11T00:33:02;76962.03;;;-142.75;100.00
41632;BME280;37452;51.938;4.624;2022-08-11T00:35:28;76969.91;;;-142.75;100.00
41632;BME280;37452;51.938;4.624;2022-08-11T00:37:55;76991.56;;;-142.75;100.00
41632;BME280;37452;51.938;4.624;2022-08-11T00:40:32;76995.50;;;-142.75;100.00
41632;BME280;37452;51.938;4.624;2022-08-11T00:45:39;77013.22;;;-142.75;100.00
41632;BME280;37452;51.938;4.624;2022-08-11T01:06:26;77068.34;;;-142.75;100.00
41632;BME280;37452;51.938;4.624;2022-08-11T01:18:59;77074.25;;;-142.75;100.00
41632;BME280;37452;51.938;4.624;2022-08-11T01:21:38;77078.19;;;-142.75;100.00
41632;BME280;37452;51.938;4.624;2022-08-11T01:27:11;77103.78;;;-142.75;100.00
41632;BME280;37452;51.938;4.624;2022-08-11T01:39:59;77105.75;;;-142.75;100.00
41632;BME280;37452;51.938;4.624;2022-08-11T01:48:27;77111.66;;;-142.75;100.00
41632;BME280;37452;51.938;4.624;2022-08-11T01:51:22;77125.44;;;-142.75;100.00
41632;BME280;37452;51.938;4.624;2022-08-11T01:56:24;77135.28;;;-142.75;100.00
41632;BME280;37452;51.938;4.624;2022-08-11T02:01:37;77141.19;;;-142.75;100.00
41632;BME280;37452;51.938;4.624;2022-08-11T02:17:37;77141.19;;;-142.75;100.00
41632;BME280;37452;51.938;4.624;2022-08-11T02:20:27;77135.28;;;-142.75;100.00
41632;BME280;37452;51.938;4.624;2022-08-11T02:26:03;77149.06;;;-142.75;100.00
41632;BME280;37452;51.938;4.624;2022-08-11T02:30:59;77172.69;;;-142.75;100.00
41632;BME280;37452;51.938;4.624;2022-08-11T02:33:44;77156.94;;;-142.75;100.00
41632;BME280;37452;51.938;4.624;2022-08-11T02:36:16;77164.81;;;-142.75;100.00
41632;BME280;37452;51.938;4.624;2022-08-11T02:47:06;77154.97;;;-142.75;100.00
41632;BME280;37452;51.938;4.624;2022-08-11T02:57:55;77164.81;;;-142.75;100.00
41632;BME280;37452;51.938;4.624;2022-08-11T03:00:23;77156.94;;;-142.75;100.00
41632;BME280;37452;51.938;4.624;2022-08-11T03:02:56;77158.91;;;-142.75;100.00
41632;BME280;37452;51.938;4.624;2022-08-11T03:13:33;77168.75;;;-142.75;100.00
41632;BME280;37452;51.938;4.624;2022-08-11T03:16:20;77156.94;;;-142.75;100.00
41632;BME280;37452;51.938;4.624;2022-08-11T03:19:15;77156.94;;;-142.75;100.00
41632;BME280;37452;51.938;4.624;2022-08-11T03:21:47;77164.81;;;-142.75;100.00
41632;BME280;37452;51.938;4.624;2022-08-11T03:29:45;77188.44;;;-142.75;100.00
41632;BME280;37452;51.938;4.624;2022-08-11T03:34:57;77196.31;;;-142.75;100.00
41632;BME280;37452;51.938;4.624;2022-08-11T03:37:37;77204.19;;;-142.75;100.00
41632;BME280;37452;51.938;4.624;2022-08-11T03:42:57;77174.66;;;-142.75;100.00
41632;BME280;37452;51.938;4.624;2022-08-11T03:45:29;77164.81;;;-142.75;100.00
41632;BME280;37452;51.938;4.624;2022-08-11T04:00:38;77143.16;;;-142.75;100.00
41632;BME280;37452;51.938;4.624;2022-08-11T04:11:23;77180.56;;;-142.75;100.00
41632;BME280;37452;51.938;4.624;2022-08-11T04:56:39;77241.59;;;-142.75;100.00
41632;BME280;37452;51.938;4.624;2022-08-11T04:59:42;77237.66;;;-142.75;100.00
41632;BME280;37452;51.938;4.624;2022-08-11T05:02:40;77243.56;;;-142.75;100.00
41632;BME280;37452;51.938;4.624;2022-08-11T05:10:40;77221.91;;;-142.75;100.00
41632;BME280;37452;51.938;4.624;2022-08-11T05:13:09;77202.22;;;-142.75;100.00
41632;BME280;37452;51.938;4.624;2022-08-11T05:15:55;77186.47;;;-142.75;100.00
41632;BME280;37452;51.938;4.624;2022-08-11T05:18:49;77168.75;;;-142.75;100.00
41632;BME280;37452;51.938;4.624;2022-08-11T05:21:34;77145.13;;;-142.75;100.00
41632;BME280;37452;51.938;4.624;2022-08-11T05:24:22;77119.53;;;-142.75;100.00
41632;BME280;37452;51.938;4.624;2022-08-11T05:27:08;77090.00;;;-142.75;100.00
41632;BME280;37452;51.938;4.624;2022-08-11T05:30:02;77080.16;;;-142.75;100.00
41632;BME280;37452;51.938;4.624;2022-08-11T05:32:52;77066.38;;;-142.75;100.00
41632;BME280;37452;51.938;4.624;2022-08-11T05:35:45;77044.72;;;-142.75;100.00
41632;BME280;37452;51.938;4.624;2022-08-11T05:38:15;77038.81;;;-142.75;100.00
41632;BME280;37452;51.938;4.624;2022-08-11T05:41:00;77007.31;;;-142.75;100.00
41632;BME280;37452;51.938;4.624;2022-08-11T05:43:45;76985.66;;;-142.75;100.00
41632;BME280;37452;51.938;4.624;2022-08-11T05:46:30;76973.84;;;-142.75;100.00
41632;BME280;37452;51.938;4.624;2022-08-11T05:49:21;76952.19;;;-142.75;100.00
41632;BME280;37452;51.938;4.624;2022-08-11T05:52:05;76932.50;;;-142.75;100.00
41632;BME280;37452;51.938;4.624;2022-08-11T05:54:59;76906.91;;;-142.75;100.00
41632;BME280;37452;51.938;4.624;2022-08-11T05:57:43;76889.19;;;-142.75;100.00
41632;BME280;37452;51.938;4.624;2022-08-11T06:00:09;76867.53;;;-142.75;100.00
41632;BME280;37452;51.938;4.624;2022-08-11T06:02:39;76834.06;;;-142.75;100.00
41632;BME280;37452;51.938;4.624;2022-08-11T06:05:05;76806.50;;;-142.75;100.00
41632;BME280;37452;51.938;4.624;2022-08-11T06:07:30;76802.56;;;-142.75;100.00
41632;BME280;37452;51.938;4.624;2022-08-11T06:09:57;76778.97;;;-142.75;100.00
41632;BME280;37452;51.938;4.624;2022-08-11T06:12:29;76749.44;;;-142.75;100.00
41632;BME280;37452;51.938;4.624;2022-08-11T06:14:57;76727.78;;;-142.75;100.00
41632;BME280;37452;51.938;4.624;2022-08-11T06:17:26;76704.16;;;-142.75;100.00
41632;BME280;37452;51.938;4.624;2022-08-11T06:19:58;76676.59;;;-142.75;100.00
41632;BME280;37452;51.938;4.624;2022-08-11T06:22:23;76641.16;;;-142.75;100.00
41632;BME280;37452;51.938;4.624;2022-08-11T06:24:50;76645.09;;;-142.75;100.00
41632;BME280;37452;51.938;4.624;2022-08-11T06:27:23;76625.41;;;-142.75;100.00
41632;BME280;37452;51.938;4.624;2022-08-11T06:29:50;76609.66;;;-142.75;100.00
41632;BME280;37452;51.938;4.624;2022-08-11T06:32:16;76601.78;;;-142.75;100.00
41632;BME280;37452;51.938;4.624;2022-08-11T06:34:52;76574.22;;;-142.75;100.00
41632;BME280;37452;51.938;4.624;2022-08-11T06:37:24;76544.69;;;-142.75;100.00
41632;BME280;37452;51.938;4.624;2022-08-11T06:42:27;76558.47;;;-142.75;100.00
41632;BME280;37452;51.938;4.624;2022-08-11T06:45:06;76530.91;;;-142.75;100.00
41632;BME280;37452;51.938;4.624;2022-08-11T06:47:40;76509.28;;;-142.75;100.00
41632;BME280;37452;51.938;4.624;2022-08-11T06:50:06;76477.78;;;-142.75;100.00
41632;BME280;37452;51.938;4.624;2022-08-11T06:52:50;76475.81;;;-142.75;100.00
41632;BME280;37452;51.938;4.624;2022-08-11T06:55:24;76467.94;;;-142.75;100.00
41632;BME280;37452;51.938;4.624;2022-08-11T06:58:12;76458.09;;;-142.75;100.00
41632;BME280;37452;51.938;4.624;2022-08-11T07:00:59;76434.47;;;-142.75;100.00
41632;BME280;37452;51.938;4.624;2022-08-11T07:03:27;76416.75;;;-142.75;100.00
41632;BME280;37452;51.938;4.624;2022-08-11T07:06:02;76381.31;;;-142.75;100.00
41632;BME280;37452;51.938;4.624;2022-08-11T07:14:04;76330.16;;;-142.75;100.00
41632;BME280;37452;51.938;4.624;2022-08-11T07:16:49;76318.34;;;-142.75;100.00
41632;BME280;37452;51.938;4.624;2022-08-11T07:19:19;76280.94;;;-142.75;100.00
41632;BME280;37452;51.938;4.624;2022-08-11T07:22:05;76263.22;;;-142.75;100.00
41632;BME280;37452;51.938;4.624;2022-08-11T07:25:00;76229.75;;;-142.75;100.00
41632;BME280;37452;51.938;4.624;2022-08-11T07:27:45;76212.03;;;-142.75;100.00
41632;BME280;37452;51.938;4.624;2022-08-11T07:30:31;76190.41;;;-142.75;100.00
41632;BME280;37452;51.938;4.624;2022-08-11T07:32:59;76162.84;;;-142.75;100.00
41632;BME280;37452;51.938;4.624;2022-08-11T07:35:45;76117.56;;;-142.75;100.00
41632;BME280;37452;51.938;4.624;2022-08-11T07:38:20;76078.19;;;-142.75;100.00
41632;BME280;37452;51.938;4.624;2022-08-11T07:40:47;76093.94;;;-142.75;100.00
41632;BME280;37452;51.938;4.624;2022-08-11T07:43:12;76099.84;;;-142.75;100.00
41632;BME280;37452;51.938;4.624;2022-08-11T07:45:41;76034.91;;;-142.75;100.00
41632;BME280;37452;51.938;4.624;2022-08-11T07:48:26;76001.44;;;-142.75;100.00
41632;BME280;37452;51.938;4.624;2022-08-11T07:51:12;75981.75;;;-142.75;100.00
41632;BME280;37452;51.938;4.624;2022-08-11T07:53:56;75962.09;;;-142.75;100.00
41632;BME280;37452;51.938;4.624;2022-08-11T07:56:22;75952.25;;;-142.75;100.00
41632;BME280;37452;51.938;4.624;2022-08-11T07:58:47;75938.47;;;-142.75;100.00
41632;BME280;37452;51.938;4.624;2022-08-11T08:01:33;75928.63;;;-142.75;98.11
41632;BME280;37452;51.938;4.624;2022-08-11T08:04:17;75908.94;;;-142.75;100.00
41632;BME280;37452;51.938;4.624;2022-08-11T08:07:02;75873.50;;;-142.75;96.24
41632;BME280;37452;51.938;4.624;2022-08-11T08:09:47;75873.50;;;-142.75;94.83
41632;BME280;37452;51.938;4.624;2022-08-11T08:12:30;75845.97;;;-142.75;97.66
41632;BME280;37452;51.938;4.624;2022-08-11T08:15:15;75814.47;;;-142.75;90.48
41632;BME280;37452;51.938;4.624;2022-08-11T08:18:01;75812.50;;;-142.75;92.65
41632;BME280;37452;51.938;4.624;2022-08-11T08:20:34;75782.97;;;-142.75;91.52
41632;BME280;37452;51.938;4.624;2022-08-11T08:23:00;75794.78;;;-142.75;86.80
41632;BME280;37452;51.938;4.624;2022-08-11T08:25:30;75794.78;;;-142.75;85.69
41632;BME280;37452;51.938;4.624;2022-08-11T08:27:56;75767.22;;;-142.75;82.88
41632;BME280;37452;51.938;4.624;2022-08-11T08:30:23;75735.75;;;-142.75;82.63
41632;BME280;37452;51.938;4.624;2022-08-11T08:33:08;75706.22;;;-142.75;85.53
41632;BME280;37452;51.938;4.624;2022-08-11T08:35:35;75716.06;;;-142.75;83.30
41632;BME280;37452;51.938;4.624;2022-08-11T08:38:02;75694.41;;;-142.75;82.60
41632;BME280;37452;51.938;4.624;2022-08-11T08:40:27;75668.84;;;-142.75;83.33
41632;BME280;37452;51.938;4.624;2022-08-11T08:42:57;75645.22;;;-142.75;77.16
41632;BME280;37452;51.938;4.624;2022-08-11T08:45:23;75605.84;;;-142.75;76.12
41632;BME280;37452;51.938;4.624;2022-08-11T08:47:59;75607.81;;;-142.75;78.42
41632;BME280;37452;51.938;4.624;2022-08-11T08:50:26;75562.56;;;-142.75;74.50
41632;BME280;37452;51.938;4.624;2022-08-11T08:53:12;75597.97;;;-142.75;75.88
41632;BME280;37452;51.938;4.624;2022-08-11T08:55:38;75570.44;;;-142.75;74.17
41632;BME280;37452;51.938;4.624;2022-08-11T08:58:05;75513.38;;;-142.75;75.57
41632;BME280;37452;51.938;4.624;2022-08-11T09:00:42;75475.97;;;-142.75;70.56
41632;BME280;37452;51.938;4.624;2022-08-11T09:03:08;75460.22;;;-142.75;67.93
41632;BME280;37452;51.938;4.624;2022-08-11T09:05:34;75432.69;;;-142.75;63.94
41632;BME280;37452;51.938;4.624;2022-08-11T09:07:59;75436.59;;;-142.75;66.50
41632;BME280;37452;51.938;4.624;2022-08-11T09:10:25;75430.72;;;-142.75;66.98
41632;BME280;37452;51.938;4.624;2022-08-11T09:12:54;75438.56;;;-142.75;68.76
41632;BME280;37452;51.938;4.624;2022-08-11T09:15:20;75407.09;;;-142.75;66.05
41632;BME280;37452;51.938;4.624;2022-08-11T09:17:49;75391.34;;;-142.75;65.65
41632;BME280;37452;51.938;4.624;2022-08-11T09:20:19;75361.84;;;-142.75;62.46
41632;BME280;37452;51.938;4.624;2022-08-11T09:22:45;75342.16;;;-142.75;64.94
41632;BME280;37452;51.938;4.624;2022-08-11T09:25:31;75363.78;;;-142.75;64.84
41632;BME280;37452;51.938;4.624;2022-08-11T09:28:16;75334.28;;;-142.75;62.78
41632;BME280;37452;51.938;4.624;2022-08-11T09:30:42;75320.50;;;-142.75;62.16
41632;BME280;37452;51.938;4.624;2022-08-11T09:33:08;75298.84;;;-142.75;61.21
41632;BME280;37452;51.938;4.624;2022-08-11T09:35:37;75294.94;;;-142.75;60.19
41632;BME280;37452;51.938;4.624;2022-08-11T09:38:03;75275.25;;;-142.75;61.78
41632;BME280;37452;51.938;4.624;2022-08-11T09:40:48;75233.91;;;-142.75;59.22
41632;BME280;37452;51.938;4.624;2022-08-11T09:43:17;75192.59;;;-142.75;57.73
41632;BME280;37452;51.938;4.624;2022-08-11T09:46:01;75184.72;;;-142.75;57.79
41632;BME280;37452;51.938;4.624;2022-08-11T09:48:30;75159.16;;;-142.75;59.44
41632;BME280;37452;51.938;4.624;2022-08-11T09:50:59;75168.97;;;-142.75;59.42
41632;BME280;37452;51.938;4.624;2022-08-11T09:53:25;75163.09;;;-142.75;55.48
41632;BME280;37452;51.938;4.624;2022-08-11T09:55:51;75174.88;;;-142.75;54.58
41632;BME280;37452;51.938;4.624;2022-08-11T09:58:17;75184.72;;;-142.75;54.53
41632;BME280;37452;51.938;4.624;2022-08-11T10:00:47;75121.75;;;-142.75;53.57
41632;BME280;37452;51.938;4.624;2022-08-11T10:03:22;75131.59;;;-142.75;49.81
41632;BME280;37452;51.938;4.624;2022-08-11T10:05:50;75149.31;;;-142.75;49.89
41632;BME280;37452;51.938;4.624;2022-08-11T10:08:36;75127.66;;;-142.75;49.04
41632;BME280;37452;51.938;4.624;2022-08-11T10:11:02;75149.31;;;-142.75;47.17
41632;BME280;37452;51.938;4.624;2022-08-11T10:13:29;75054.84;;;-142.75;47.43
41632;BME280;37452;51.938;4.624;2022-08-11T10:15:58;75072.56;;;-142.75;43.34
41632;BME280;37452;51.938;4.624;2022-08-11T10:18:58;75039.13;;;-142.75;43.91
41632;BME280;37452;51.938;4.624;2022-08-11T10:23:41;75015.50;;;-142.75;40.78
41632;BME280;37452;51.938;4.624;2022-08-11T10:26:27;74997.78;;;-142.75;44.56
41632;BME280;37452;51.938;4.624;2022-08-11T10:29:11;75007.63;;;-142.75;40.19
41632;BME280;37452;51.938;4.624;2022-08-11T10:31:56;74966.31;;;-142.75;41.24
41632;BME280;37452;51.938;4.624;2022-08-11T10:34:51;74960.41;;;-142.75;43.12
41632;BME280;37452;51.938;4.624;2022-08-11T10:37:16;74915.16;;;-142.75;44.80
41632;BME280;37452;51.938;4.624;2022-08-11T10:39:44;74934.81;;;-142.75;37.29
41632;BME280;37452;51.938;4.624;2022-08-11T10:42:09;74944.66;;;-142.75;37.40
41632;BME280;37452;51.938;4.624;2022-08-11T10:44:54;74984.00;;;-142.75;36.19
41632;BME280;37452;51.938;4.624;2022-08-11T10:47:21;74974.19;;;-142.75;37.79
41632;BME280;37452;51.938;4.624;2022-08-11T10:50:09;74952.53;;;-142.75;36.17
41632;BME280;37452;51.938;4.624;2022-08-11T10:52:54;74883.66;;;-142.75;36.66
41632;BME280;37452;51.938;4.624;2022-08-11T10:55:40;74944.66;;;-142.75;36.37
41632;BME280;37452;51.938;4.624;2022-08-11T10:58:25;74930.88;;;-142.75;34.84
41632;BME280;37452;51.938;4.624;2022-08-11T11:01:09;74869.88;;;-142.75;33.85
41632;BME280;37452;51.938;4.624;2022-08-11T11:03:34;74948.59;;;-142.75;33.65
41632;BME280;37452;51.938;4.624;2022-08-11T11:06:04;74919.09;;;-142.75;35.63
41632;BME280;37452;51.938;4.624;2022-08-11T11:08:31;74867.91;;;-142.75;34.56
41632;BME280;37452;51.938;4.624;2022-08-11T11:11:34;74897.44;;;-142.75;35.15
41632;BME280;37452;51.938;4.624;2022-08-11T11:14:19;74899.41;;;-142.75;33.76
41632;BME280;37452;51.938;4.624;2022-08-11T11:17:04;74883.66;;;-142.75;32.95
41632;BME280;37452;51.938;4.624;2022-08-11T11:19:39;74928.91;;;-142.75;31.45
41632;BME280;37452;51.938;4.624;2022-08-11T11:22:06;74903.34;;;-142.75;29.95
41632;BME280;37452;51.938;4.624;2022-08-11T11:25:03;74936.78;;;-142.75;31.50
41632;BME280;37452;51.938;4.624;2022-08-11T11:27:55;74928.91;;;-142.75;30.25
41632;BME280;37452;51.938;4.624;2022-08-11T11:30:17;74954.50;;;-142.75;30.79
41632;BME280;37452;51.938;4.624;2022-08-11T11:32:47;74968.28;;;-142.75;32.00
41632;BME280;37452;51.938;4.624;2022-08-11T11:35:22;74958.44;;;-142.75;33.30
41632;BME280;37452;51.938;4.624;2022-08-11T11:37:50;75003.69;;;-142.75;30.61
41632;BME280;37452;51.938;4.624;2022-08-11T11:40:17;75035.19;;;-142.75;31.08
41632;BME280;37452;51.938;4.624;2022-08-11T11:42:45;75019.44;;;-142.75;30.02
41632;BME280;37452;51.938;4.624;2022-08-11T11:45:16;75035.19;;;-142.75;31.56
41632;BME280;37452;51.938;4.624;2022-08-11T11:47:41;75043.03;;;-142.75;31.33
41632;BME280;37452;51.938;4.624;2022-08-11T11:50:08;74974.19;;;-142.75;33.20
41632;BME280;37452;51.938;4.624;2022-08-11T11:52:34;75007.63;;;-142.75;31.47
41632;BME280;37452;51.938;4.624;2022-08-11T11:54:59;75001.72;;;-142.75;31.21
41632;BME280;37452;51.938;4.624;2022-08-11T11:57:26;74978.13;;;-142.75;31.45
41632;BME280;37452;51.938;4.624;2022-08-11T12:00:11;74984.00;;;-142.75;30.63
41632;BME280;37452;51.938;4.624;2022-08-11T12:02:57;74995.81;;;-142.75;32.16
41632;BME280;37452;51.938;4.624;2022-08-11T12:05:24;74923.03;;;-142.75;30.45
41632;BME280;37452;51.938;4.624;2022-08-11T12:07:49;74924.97;;;-142.75;29.81
41632;BME280;37452;51.938;4.624;2022-08-11T12:10:33;74926.94;;;-142.75;29.33
41632;BME280;37452;51.938;4.624;2022-08-11T12:13:00;74909.25;;;-142.75;30.35
41632;BME280;37452;51.938;4.624;2022-08-11T12:15:45;74901.38;;;-142.75;30.81
41632;BME280;37452;51.938;4.624;2022-08-11T12:18:10;74903.34;;;-142.75;31.07
41632;BME280;37452;51.938;4.624;2022-08-11T12:20:36;74924.97;;;-142.75;31.49
41632;BME280;37452;51.938;4.624;2022-08-11T12:23:01;74915.16;;;-142.75;30.49
41632;BME280;37452;51.938;4.624;2022-08-11T12:25:46;74883.66;;;-142.75;30.69
41632;BME280;37452;51.938;4.624;2022-08-11T12:28:29;74887.59;;;-142.75;29.93
41632;BME280;37452;51.938;4.624;2022-08-11T12:30:55;74869.88;;;-142.75;30.09
41632;BME280;37452;51.938;4.624;2022-08-11T12:33:20;74885.63;;;-142.75;28.82
41632;BME280;37452;51.938;4.624;2022-08-11T12:35:47;74885.63;;;-142.75;28.56
41632;BME280;37452;51.938;4.624;2022-08-11T12:38:16;74865.97;;;-142.75;29.65
41632;BME280;37452;51.938;4.624;2022-08-11T12:40:44;74850.22;;;-142.75;28.37
41632;BME280;37452;51.938;4.624;2022-08-11T12:43:29;74891.53;;;-142.75;29.53
41632;BME280;37452;51.938;4.624;2022-08-11T12:46:32;74895.47;;;-142.75;30.24
41632;BME280;37452;51.938;4.624;2022-08-11T12:48:58;74865.97;;;-142.75;28.58
41632;BME280;37452;51.938;4.624;2022-08-11T12:51:48;74879.72;;;-142.75;28.66
41632;BME280;37452;51.938;4.624;2022-08-11T12:57:03;74946.63;;;-142.75;30.17
41632;BME280;37452;51.938;4.624;2022-08-11T12:59:50;74897.44;;;-142.75;28.66
41632;BME280;37452;51.938;4.624;2022-08-11T13:02:34;74924.97;;;-142.75;29.00
41632;BME280;37452;51.938;4.624;2022-08-11T13:05:18;74944.66;;;-142.75;29.30
41632;BME280;37452;51.938;4.624;2022-08-11T13:07:44;74948.59;;;-142.75;29.75
41632;BME280;37452;51.938;4.624;2022-08-11T13:10:11;74964.34;;;-142.75;28.24
41632;BME280;37452;51.938;4.624;2022-08-11T13:12:37;74948.59;;;-142.75;29.08
41632;BME280;37452;51.938;4.624;2022-08-11T13:15:19;74944.66;;;-142.75;28.79
41632;BME280;37452;51.938;4.624;2022-08-11T13:17:45;74968.28;;;-142.75;29.69
41632;BME280;37452;51.938;4.624;2022-08-11T13:20:12;74991.88;;;-142.75;30.05
41632;BME280;37452;51.938;4.624;2022-08-11T13:22:39;74987.94;;;-142.75;28.19
41632;BME280;37452;51.938;4.624;2022-08-11T13:25:07;75023.38;;;-142.75;30.08
41632;BME280;37452;51.938;4.624;2022-08-11T13:27:33;74991.88;;;-142.75;29.41
41632;BME280;37452;51.938;4.624;2022-08-11T13:29:58;74987.94;;;-142.75;30.05
41632;BME280;37452;51.938;4.624;2022-08-11T13:32:43;75025.34;;;-142.75;28.32
41632;BME280;37452;51.938;4.624;2022-08-11T13:35:08;75048.94;;;-142.75;31.25
41632;BME280;37452;51.938;4.624;2022-08-11T13:37:35;75066.66;;;-142.75;32.66
41632;BME280;37452;51.938;4.624;2022-08-11T13:40:01;75070.59;;;-142.75;31.11
41632;BME280;37452;51.938;4.624;2022-08-11T13:42:26;75058.78;;;-142.75;29.91
41632;BME280;37452;51.938;4.624;2022-08-11T13:44:52;75023.38;;;-142.75;30.95
41632;BME280;37452;51.938;4.624;2022-08-11T13:47:17;75033.22;;;-142.75;30.85
41632;BME280;37452;51.938;4.624;2022-08-11T13:49:46;75066.66;;;-142.75;32.05
41632;BME280;37452;51.938;4.624;2022-08-11T13:52:12;75086.34;;;-142.75;31.09
41632;BME280;37452;51.938;4.624;2022-08-11T13:54:38;75129.63;;;-142.75;30.46
41632;BME280;37452;51.938;4.624;2022-08-11T13:57:05;75121.75;;;-142.75;32.50
41632;BME280;37452;51.938;4.624;2022-08-11T13:59:31;75100.09;;;-142.75;32.40
41632;BME280;37452;51.938;4.624;2022-08-11T14:02:00;75104.03;;;-142.75;32.22
41632;BME280;37452;51.938;4.624;2022-08-11T14:04:29;75153.25;;;-142.75;32.42
41632;BME280;37452;51.938;4.624;2022-08-11T14:06:57;75123.72;;;-142.75;32.35
41632;BME280;37452;51.938;4.624;2022-08-11T14:09:29;75153.25;;;-142.75;31.49
41632;BME280;37452;51.938;4.624;2022-08-11T14:11:57;75129.63;;;-142.75;36.40
41632;BME280;37452;51.938;4.624;2022-08-11T14:14:42;75129.63;;;-142.75;32.30
41632;BME280;37452;51.938;4.624;2022-08-11T14:17:10;75143.41;;;-142.75;31.33
41632;BME280;37452;51.938;4.624;2022-08-11T14:19:38;75161.13;;;-142.75;33.15
41632;BME280;37452;51.938;4.624;2022-08-11T14:22:04;75172.91;;;-142.75;38.21
41632;BME280;37452;51.938;4.624;2022-08-11T14:24:35;75200.47;;;-142.75;34.76
41632;BME280;37452;51.938;4.624;2022-08-11T14:27:01;75190.63;;;-142.75;38.37
41632;BME280;37452;51.938;4.624;2022-08-11T14:29:27;75184.72;;;-142.75;38.89
41632;BME280;37452;51.938;4.624;2022-08-11T14:31:57;75184.72;;;-142.75;35.24
41632;BME280;37452;51.938;4.624;2022-08-11T14:34:23;75188.66;;;-142.75;36.79
41632;BME280;37452;51.938;4.624;2022-08-11T14:36:51;75192.59;;;-142.75;35.99
41632;BME280;37452;51.938;4.624;2022-08-11T14:39:17;75196.53;;;-142.75;38.22
41632;BME280;37452;51.938;4.624;2022-08-11T14:41:46;75208.34;;;-142.75;36.87
41632;BME280;37452;51.938;4.624;2022-08-11T14:44:31;75228.00;;;-142.75;38.60
41632;BME280;37452;51.938;4.624;2022-08-11T14:47:17;75237.84;;;-142.75;38.76
41632;BME280;37452;51.938;4.624;2022-08-11T14:49:42;75247.69;;;-142.75;41.75
41632;BME280;37452;51.938;4.624;2022-08-11T14:52:12;75237.84;;;-142.75;43.64
41632;BME280;37452;51.938;4.624;2022-08-11T14:54:40;75239.81;;;-142.75;37.25
41632;BME280;37452;51.938;4.624;2022-08-11T14:57:24;75245.72;;;-142.75;36.51
41632;BME280;37452;51.938;4.624;2022-08-11T14:59:52;75251.63;;;-142.75;36.19
41632;BME280;37452;51.938;4.624;2022-08-11T15:02:18;75249.66;;;-142.75;37.15
41632;BME280;37452;51.938;4.624;2022-08-11T15:05:03;75249.66;;;-142.75;42.99
41632;BME280;37452;51.938;4.624;2022-08-11T15:07:30;75255.56;;;-142.75;52.21
41632;BME280;37452;51.938;4.624;2022-08-11T15:09:59;75275.25;;;-142.75;51.18
41632;BME280;37452;51.938;4.624;2022-08-11T15:12:25;75271.31;;;-142.75;54.84
41632;BME280;37452;51.938;4.624;2022-08-11T15:14:50;75283.13;;;-142.75;52.83
41632;BME280;37452;51.938;4.624;2022-08-11T15:17:35;75275.25;;;-142.75;53.70
41632;BME280;37452;51.938;4.624;2022-08-11T15:20:06;75275.25;;;-142.75;57.23
41632;BME280;37452;51.938;4.624;2022-08-11T15:22:51;75283.13;;;-142.75;55.67
41632;BME280;37452;51.938;4.624;2022-08-11T15:25:35;75279.19;;;-142.75;56.54
41632;BME280;37452;51.938;4.624;2022-08-11T15:28:01;75296.88;;;-142.75;54.77
41632;BME280;37452;51.938;4.624;2022-08-11T15:30:45;75298.84;;;-142.75;55.45
41632;BME280;37452;51.938;4.624;2022-08-11T15:33:30;75298.84;;;-142.75;58.20
41632;BME280;37452;51.938;4.624;2022-08-11T15:36:14;75304.75;;;-142.75;58.76
41632;BME280;37452;51.938;4.624;2022-08-11T15:39:02;75318.53;;;-142.75;58.65
41632;BME280;37452;51.938;4.624;2022-08-11T15:42:16;75312.63;;;-142.75;57.35
41632;BME280;37452;51.938;4.624;2022-08-11T15:44:36;75310.66;;;-142.75;60.43
41632;BME280;37452;51.938;4.624;2022-08-11T15:47:24;75322.47;;;-142.75;59.04
41632;BME280;37452;51.938;4.624;2022-08-11T15:49:52;75340.19;;;-142.75;57.03
41632;BME280;37452;51.938;4.624;2022-08-11T15:52:20;75352.00;;;-142.75;57.54
41632;BME280;37452;51.938;4.624;2022-08-11T15:54:46;75365.75;;;-142.75;56.60
41632;BME280;37452;51.938;4.624;2022-08-11T15:57:13;75367.72;;;-142.75;60.11
41632;BME280;37452;51.938;4.624;2022-08-11T15:59:59;75373.63;;;-142.75;59.23
41632;BME280;37452;51.938;4.624;2022-08-11T16:02:44;75373.63;;;-142.75;60.76
41632;BME280;37452;51.938;4.624;2022-08-11T16:05:12;75385.44;;;-142.75;59.06
41632;BME280;37452;51.938;4.624;2022-08-11T16:07:39;75391.34;;;-142.75;59.54
41632;BME280;37452;51.938;4.624;2022-08-11T16:10:06;75393.31;;;-142.75;60.10
41632;BME280;37452;51.938;4.624;2022-08-11T16:12:37;75389.38;;;-142.75;62.46
41632;BME280;37452;51.938;4.624;2022-08-11T16:15:04;75395.28;;;-142.75;61.50
41632;BME280;37452;51.938;4.624;2022-08-11T16:17:49;75393.31;;;-142.75;62.89
41632;BME280;37452;51.938;4.624;2022-08-11T16:20:17;75401.19;;;-142.75;60.06
41632;BME280;37452;51.938;4.624;2022-08-11T16:22:44;75393.31;;;-142.75;58.15